Latest Weather Observations for Beaudesert AWS

IDQ60801

Issued at 9:31 pm EST Sunday 30 August 2015 (issued every 30 minutes, with the page automatically refreshed every 10 minutes)

About weather observations | Map of weather stations | Latest weather observations for QLD | Other Formats
Station Details ID: 040983 Name: BEAUDESERT DRUMLEY STREET Lat: -27.97 Lon: 152.99 Height: 47.81 m
Data from the previous 72 hours. | See also: Recent months at Beaudesert AWS
Date/Time
EST
Temp
°C
App
Temp
°C
Dew
Point
Rel
Hum
%
Delta-T
°C
Wind Press
QNH
hPa
Press
MSL
hPa
Rain
since 9 am
mm
Dir
 
Spd
km/h
Gust
km/h
Spd
kts
Gust
kts
30/09:00pm 14.6 14.3 11.6 82 1.6 ENE 4 6 2 3 1016.5 1016.5 0.0
30/08:30pm 15.0 14.7 11.4 79 1.9 ENE 4 6 2 3 1016.4 1016.4 0.0
30/08:00pm 15.6 15.3 11.6 77 2.2 N 4 7 2 4 1016.0 1016.0 0.0
30/07:30pm 15.9 15.6 11.3 74 2.5 NNW 4 7 2 4 1015.7 1015.7 0.0
30/07:00pm 16.6 16.2 11.1 70 3.0 NE 4 7 2 4 1015.2 1015.2 0.0
30/06:30pm 17.5 16.7 11.1 66 3.5 ENE 6 9 3 5 1014.8 1014.8 0.0
30/06:00pm 18.2 17.4 9.8 58 4.5 NNE 4 9 2 5 1014.3 1014.3 0.0
30/05:30pm 19.5 18.0 5.2 39 7.0 S 2 2 1 1 1013.9 1013.9 0.0
30/05:00pm 20.7 18.3 5.1 36 7.7 SSW 7 11 4 6 1013.6 1013.6 0.0
30/04:30pm 20.0 17.8 5.3 38 7.2 SW 6 11 3 6 1013.3 1013.3 0.0
30/04:00pm 21.4 19.0 5.3 35 8.0 SW 7 11 4 6 1013.2 1013.2 0.0
30/03:30pm 21.9 19.6 4.9 33 8.4 SSE 6 9 3 5 1013.2 1013.2 0.0
30/03:00pm 22.4 20.5 4.9 32 8.7 SW 4 7 2 4 1013.3 1013.3 0.0
30/02:30pm 22.6 19.6 4.2 30 9.0 WNW 9 24 5 13 1013.5 1013.5 0.0
30/02:00pm 22.2 19.2 4.3 31 8.8 W 9 13 5 7 1013.6 1013.6 0.0
30/01:30pm 21.7 18.0 4.7 33 8.4 W 13 24 7 13 1013.9 1013.9 0.0
30/01:00pm 21.6 19.0 5.9 36 7.9 W 9 17 5 9 1014.3 1014.3 0.0
30/12:30pm 21.7 20.1 6.4 37 7.8 SW 4 7 2 4 1014.7 1014.7 0.0
30/12:00pm 21.0 19.0 6.9 40 7.2 W 7 11 4 6 1015.3 1015.3 0.0
30/11:30am 20.6 18.2 7.2 42 6.9 SW 9 17 5 9 1015.9 1015.9 0.0
30/11:00am 20.3 17.4 6.6 41 6.9 SW 11 24 6 13 1016.5 1016.5 0.0
30/10:30am 19.0 16.6 6.8 45 6.1 SSW 9 17 5 9 1017.1 1017.1 0.0
30/10:00am 18.0 16.5 8.6 54 4.9 SSW 6 13 3 7 1017.5 1017.5 0.0
30/09:30am 17.5 16.8 12.0 70 3.0 SW 7 11 4 6 1017.9 1017.9 0.0
30/09:00am 16.7 16.0 12.0 74 2.6 WSW 7 11 4 6 1017.9 1017.9 7.2
30/08:30am 16.1 14.8 11.3 73 2.6 SW 9 13 5 7 1017.9 1017.9 7.0
30/08:00am 15.3 15.4 13.8 91 0.8 S 6 9 3 5 1017.5 1017.5 7.0
30/07:30am 15.0 15.1 14.0 94 0.6 SW 6 9 3 5 1017.4 1017.4 7.0
30/07:00am 14.8 15.7 14.0 95 0.5 WSW 2 6 1 3 1017.3 1017.3 7.0
30/06:30am 14.7 15.9 13.9 95 0.4 CALM 0 4 0 2 1017.3 1017.3 7.0
30/06:00am 14.5 15.6 13.5 94 0.6 CALM 0 0 0 0 1016.7 1016.7 7.0
30/05:30am 14.7 15.9 13.9 95 0.4 CALM 0 0 0 0 1016.8 1016.8 7.0
30/05:00am 14.7 15.9 13.7 94 0.6 CALM 0 0 0 0 1016.3 1016.3 7.0
30/04:30am 14.7 15.9 13.7 94 0.6 CALM 0 0 0 0 1016.3 1016.3 7.0
30/04:00am 14.7 15.9 13.9 95 0.4 CALM 0 0 0 0 1016.7 1016.7 7.0
30/03:30am 14.7 15.9 13.9 95 0.4 CALM 0 0 0 0 1016.9 1016.9 7.0
30/03:00am 14.6 15.8 13.8 95 0.4 CALM 0 2 0 1 1017.3 1017.3 7.0
30/02:30am 14.7 15.9 13.9 95 0.4 CALM 0 0 0 0 1017.5 1017.5 7.0
30/02:00am 14.5 15.2 13.5 94 0.6 SE 2 6 1 3 1017.4 1017.4 7.0
30/01:30am 14.8 15.6 13.8 94 0.6 ENE 2 4 1 2 1017.4 1017.4 7.0
30/01:00am 14.9 16.1 13.9 94 0.6 CALM 0 0 0 0 1018.8 1018.8 7.0
30/12:30am 14.8 16.0 13.7 93 0.6 CALM 0 0 0 0 1018.7 1018.7 7.0
30/12:00am 14.9 16.1 13.9 94 0.6 CALM 0 0 0 0 1019.3 1019.3 7.0
 
Date/Time
EST
Temp
°C
App
Temp
°C
Dew
Point
Rel
Hum
%
Delta-T
°C
Wind Press
QNH
hPa
Press
MSL
hPa
Rain
since 9 am
mm
Dir
 
Spd
km/h
Gust
km/h
Spd
kts
Gust
kts
29/11:30pm 14.8 16.0 13.8 94 0.6 CALM 0 0 0 0 1019.5 1019.5 7.0
29/11:00pm 14.8 15.6 13.8 94 0.6 E 2 4 1 2 1019.1 1019.1 7.0
29/10:30pm 14.7 15.5 13.7 94 0.6 SSE 2 6 1 3 1019.3 1019.3 7.0
29/10:00pm 14.9 15.8 13.9 94 0.6 SSE 2 4 1 2 1019.6 1019.6 6.6
29/09:30pm 14.9 15.0 13.9 94 0.6 WSW 6 7 3 4 1020.3 1020.3 6.6
29/09:00pm 14.9 15.3 13.8 93 0.6 SW 4 6 2 3 1019.9 1019.9 6.6
29/08:30pm 15.0 15.1 13.9 93 0.6 ENE 6 11 3 6 1019.5 1019.5 6.4
29/08:00pm 15.2 16.5 14.1 93 0.6 CALM 0 0 0 0 1020.3 1020.3 5.2
29/07:30pm 15.2 16.4 13.9 92 0.7 CALM 0 0 0 0 1020.5 1020.5 3.8
29/07:00pm 15.4 16.6 13.9 91 0.8 CALM 0 4 0 2 1020.4 1020.4 3.0
29/06:30pm 15.6 16.1 14.1 91 0.9 NE 4 6 2 3 1020.3 1020.3 2.4
29/06:00pm 15.9 16.3 13.7 87 1.2 NNW 4 6 2 3 1020.4 1020.4 1.8
29/05:30pm 16.7 17.3 14.2 85 1.4 WNW 4 7 2 4 1020.1 1020.1 0.8
29/05:00pm 17.9 18.5 13.0 73 2.7 N 2 4 1 2 1019.2 1019.2 0.0
29/04:30pm 18.8 18.1 12.1 65 3.7 NE 7 15 4 8 1018.8 1018.8 0.0
29/04:00pm 20.0 18.3 11.2 57 4.8 ENE 11 20 6 11 1018.4 1018.4 0.0
29/03:30pm 20.6 18.6 11.5 56 5.0 NE 13 20 7 11 1018.3 1018.3 0.0
29/03:00pm 21.1 19.4 11.2 53 5.5 NE 11 19 6 10 1018.5 1018.5 0.0
29/02:30pm 22.2 21.0 10.4 47 6.5 NE 7 13 4 7 1018.5 1018.5 0.0
29/02:00pm 22.5 21.3 9.6 44 7.0 NNW 6 11 3 6 1019.1 1019.1 0.0
29/01:30pm 23.2 21.4 9.6 42 7.4 NNE 9 17 5 9 1019.6 1019.6 0.0
29/01:00pm 22.5 21.6 9.3 43 7.1 NE 4 13 2 7 1020.1 1020.1 0.0
29/12:30pm 22.4 21.1 9.2 43 7.1 N 6 11 3 6 1020.7 1020.7 0.0
29/12:00pm 21.9 20.0 9.1 44 6.8 NNE 9 20 5 11 1021.1 1021.1 0.0
29/11:30am 22.3 20.7 8.1 40 7.5 NNW 6 13 3 7 1021.7 1021.7 0.0
29/11:00am 22.0 20.7 9.2 44 6.8 N 6 9 3 5 1022.2 1022.2 0.0
29/10:30am 20.3 19.4 9.2 49 5.9 W 4 9 2 5 1022.9 1022.8 0.0
29/10:00am 19.4 18.2 9.6 53 5.2 WSW 6 7 3 4 1023.2 1023.1 0.0
29/09:30am 17.5 17.7 10.4 63 3.8 CALM 0 6 0 3 1023.3 1023.2 0.0
29/09:00am 15.2 14.9 10.2 72 2.6 SSW 2 6 1 3 1023.5 1023.4 0.0
29/08:30am 13.1 12.9 10.3 83 1.5 SE 2 4 1 2 1023.6 1023.5 0.0
29/08:00am 11.3 10.8 9.4 88 1.0 SW 2 4 1 2 1023.7 1023.6 0.0
29/07:30am 9.6 8.3 7.5 87 1.0 SSW 4 9 2 5 1023.5 1023.4 0.0
29/07:00am 9.3 8.9 8.4 94 0.4 CALM 0 0 0 0 1023.3 1023.2 0.0
29/06:30am 7.9 7.2 6.8 93 0.5 CALM 0 0 0 0 1023.1 1023.0 0.0
29/06:00am 8.0 6.6 7.1 94 0.4 ESE 4 6 2 3 1022.6 1022.6 0.0
29/05:30am 7.8 7.1 6.9 94 0.4 CALM 0 2 0 1 1022.4 1022.4 0.0
29/05:00am 7.5 5.9 6.4 93 0.5 S 4 4 2 2 1022.2 1022.2 0.0
29/04:30am 8.2 6.7 7.0 92 0.6 SSE 4 4 2 2 1022.0 1022.0 0.0
29/04:00am 8.3 6.9 7.1 92 0.6 SSE 4 4 2 2 1022.1 1022.1 0.0
29/03:30am 8.4 7.3 7.0 91 0.7 SE 2 4 1 2 1022.1 1022.1 0.0
29/03:00am 8.7 7.7 7.3 91 0.7 SSE 2 4 1 2 1022.3 1022.3 0.0
29/02:30am 9.1 8.6 7.9 92 0.6 CALM 0 0 0 0 1022.5 1022.5 0.0
29/02:00am 9.2 8.7 8.0 92 0.6 CALM 0 0 0 0 1022.4 1022.4 0.0
29/01:30am 9.3 8.6 8.5 95 0.4 SE 2 4 1 2 1022.4 1022.4 0.0
29/01:00am 8.9 8.4 7.7 92 0.6 CALM 0 0 0 0 1022.5 1022.5 0.0
29/12:30am 9.5 9.1 8.1 91 0.7 CALM 0 0 0 0 1022.9 1022.8 0.0
29/12:00am 10.0 9.6 8.3 89 0.8 CALM 0 0 0 0 1023.0 1022.9 0.0
 
Date/Time
EST
Temp
°C
App
Temp
°C
Dew
Point
Rel
Hum
%
Delta-T
°C
Wind Press
QNH
hPa
Press
MSL
hPa
Rain
since 9 am
mm
Dir
 
Spd
km/h
Gust
km/h
Spd
kts
Gust
kts
28/11:30pm 10.8 10.0 9.7 93 0.6 SE 4 6 2 3 1022.7 1022.7 0.0
28/11:00pm 10.7 10.3 9.9 95 0.4 SE 2 4 1 2 1022.7 1022.7 0.0
28/10:30pm 9.9 9.6 8.7 92 0.6 CALM 0 0 0 0 1022.6 1022.6 0.0
28/10:00pm 10.3 10.1 9.1 92 0.6 CALM 0 0 0 0 1022.9 1022.8 0.0
28/09:30pm 11.1 11.1 9.7 91 0.7 CALM 0 0 0 0 1022.7 1022.7 0.0
28/09:00pm 11.0 10.8 9.1 88 0.9 CALM 0 0 0 0 1023.0 1022.9 0.0
28/08:30pm 12.2 12.2 9.8 85 1.2 CALM 0 0 0 0 1022.6 1022.6 0.0
28/08:00pm 13.6 13.8 10.6 82 1.6 CALM 0 4 0 2 1022.2 1022.2 0.0
28/07:30pm 14.4 14.7 11.0 80 1.8 CALM 0 0 0 0 1021.7 1021.7 0.0
28/07:00pm 15.3 15.5 10.7 74 2.4 CALM 0 0 0 0 1021.3 1021.3 0.0
28/06:30pm 16.2 16.0 10.5 69 3.0 SSE 2 4 1 2 1020.8 1020.8 0.0
28/06:00pm 18.0 17.0 10.9 63 3.8 NE 7 11 4 6 1020.1 1020.1 0.0
28/05:30pm 19.1 17.2 10.6 58 4.6 NE 11 20 6 11 1019.5 1019.5 0.0
28/05:00pm 22.8 20.7 5.7 33 8.6 SW 6 7 3 4 1018.9 1018.9 0.0
28/04:30pm 23.4 21.2 5.3 31 9.1 SW 6 11 3 6 1018.6 1018.6 0.0
28/04:00pm 24.2 22.1 6.0 31 9.3 W 6 9 3 5 1018.4 1018.4 0.0
28/03:30pm 23.9 22.2 5.8 31 9.2 SW 4 6 2 3 1018.2 1018.2 0.0
28/03:00pm 24.0 21.1 6.3 32 9.1 W 11 17 6 9 1018.3 1018.3 0.0
28/02:30pm 24.4 22.5 6.6 32 9.2 W 6 13 3 7 1018.4 1018.4 0.0
28/02:00pm 24.0 20.3 6.3 32 9.1 WSW 15 24 8 13 1018.6 1018.6 0.0
28/01:30pm 23.5 20.3 6.7 34 8.7 W 13 28 7 15 1019.0 1019.0 0.0
28/01:00pm 23.2 21.5 7.7 37 8.1 W 6 9 3 5 1019.4 1019.4 0.0
28/12:30pm 22.6 21.0 8.0 39 7.7 N 6 13 3 7 1019.7 1019.7 0.0
28/12:00pm 22.1 21.5 8.9 43 7.0 NW 2 7 1 4 1020.5 1020.5 0.0
28/11:30am 21.5 20.1 9.4 46 6.5 SSW 7 15 4 8 1021.1 1021.1 0.0
28/11:00am 21.0 19.8 10.2 50 5.8 SW 7 13 4 7 1021.7 1021.7 0.0
28/10:30am 20.5 18.6 9.1 48 6.0 S 9 13 5 7 1022.1 1022.1 0.0
28/10:00am 19.8 18.0 10.8 56 4.9 SW 11 17 6 9 1022.1 1022.1 0.0
28/09:30am 18.0 18.9 13.9 77 2.3 NNW 2 6 1 3 1022.5 1022.5 0.0
28/09:00am 16.1 17.5 14.5 90 0.9 CALM 0 4 0 2 1022.5 1022.5 6.6
28/08:30am 14.9 15.7 13.6 92 0.7 SW 2 4 1 2 1022.4 1022.4 6.6
28/08:00am 14.7 15.8 13.6 93 0.6 CALM 0 0 0 0 1022.2 1022.2 6.6
28/07:30am 14.1 15.1 13.1 94 0.6 CALM 0 0 0 0 1022.3 1022.3 6.6
28/07:00am 13.6 14.4 12.7 94 0.5 CALM 0 0 0 0 1021.7 1021.7 6.6
28/06:30am 13.2 13.9 12.3 94 0.5 CALM 0 0 0 0 1021.6 1021.6 6.4
28/06:00am 13.5 13.9 12.6 94 0.5 NNW 2 6 1 3 1021.3 1021.3 6.4
28/05:30am 13.4 14.2 12.5 94 0.5 CALM 0 0 0 0 1021.0 1021.0 6.4
28/05:00am 13.4 14.2 12.5 94 0.5 CALM 0 0 0 0 1020.6 1020.6 6.4
28/04:30am 13.3 13.7 12.4 94 0.5 W 2 6 1 3 1020.2 1020.2 6.4
28/04:00am 13.3 14.1 12.4 94 0.5 CALM 0 0 0 0 1020.3 1020.3 6.4
28/03:30am 13.4 13.7 12.3 93 0.6 S 2 6 1 3 1020.2 1020.2 6.4
28/03:00am 13.4 14.1 12.3 93 0.6 CALM 0 0 0 0 1020.3 1020.3 6.4
28/02:30am 13.3 14.0 12.2 93 0.6 CALM 0 4 0 2 1020.7 1020.7 6.4
28/02:00am 13.2 13.9 12.1 93 0.6 CALM 0 0 0 0 1020.9 1020.9 6.2
28/01:30am 13.2 12.8 12.3 94 0.5 W 6 6 3 3 1021.3 1021.3 6.2
28/01:00am 13.0 13.3 12.1 94 0.5 ESE 2 6 1 3 1020.7 1020.7 6.2
28/12:30am 12.9 13.5 12.0 94 0.5 CALM 0 0 0 0 1021.8 1021.8 6.2
28/12:00am 12.7 12.5 11.8 94 0.5 SSW 4 6 2 3 1021.4 1021.4 6.2
 
Date/Time
EST
Temp
°C
App
Temp
°C
Dew
Point
Rel
Hum
%
Delta-T
°C
Wind Press
QNH
hPa
Press
MSL
hPa
Rain
since 9 am
mm
Dir
 
Spd
km/h
Gust
km/h
Spd
kts
Gust
kts
27/11:30pm 12.6 13.1 11.7 94 0.5 CALM 0 0 0 0 1021.4 1021.4 6.2
27/11:00pm 12.8 13.4 11.9 94 0.5 CALM 0 0 0 0 1021.5 1021.5 6.2
27/10:30pm 12.9 13.5 12.0 94 0.5 CALM 0 0 0 0 1021.8 1021.8 6.2
27/10:00pm 13.0 13.6 11.9 93 0.6 CALM 0 0 0 0 1021.5 1021.5 6.2

Other Formats:

Comma delimited format used in spreadsheet applications
http://www.bom.gov.au/fwo/IDQ60801/IDQ60801.95575.axf

JavaScript Object Notation format (JSON) in row-major order
http://www.bom.gov.au/fwo/IDQ60801/IDQ60801.95575.json